SpazioLink.com il tuo mini portale

Terremoti in Italia, posizione geografica

Spaziolink il MiniPortale

Home Sfondi Screenmates SuperEnalotto Posizione navi Terremoti Calendario feste Barzellette Frasi utili Giochi Meteo Gifs Software Ricerca
Lista dei terremoti in Italia in tempo reale dopo l'elaborazione dei valori rilevati dai sensori dislocati nelle zone interessate, comprendenti gli eventi sismici di elevata magnitudo sull'intero globo, per visualizzare la posizione dell'epicentro su Google Maps cliccare sul nome del luogo evidenziato in blu.
DATA ORA MAG ≥ 2 ZONA REGIONE LAT LONG PROF km
08/05/2021 23:40:16 ML 2.1 4 km a nord-ovest di Sant`Alfio (CT) Sicilia 37.77 15.10 4.9
08/05/2021 21:41:24 ML 2.4 7 km a sud-est di Castelsantangelo sul Nera (MC) Marche 42.84 13.19 9.6
08/05/2021 20:20:06 ML 2.2 5 km a nord-ovest di Sant`Alfio (CT) Sicilia 37.77 15.09 6.2
08/05/2021 20:13:25 ML 3.1 4 km a nord-ovest di Sant`Alfio (CT) Sicilia 37.76 15.11 8.5
08/05/2021 20:10:21 ML 2.2 5 km a nord-ovest di Sant`Alfio (CT) Sicilia 37.77 15.10 5.4
08/05/2021 20:09:06 ML 3.1 4 km a nord-ovest di Milo (CT) Sicilia 37.76 15.10 6.7
08/05/2021 18:06:52 ML 2.4 2 km a nord-ovest di Finale Emilia (MO) Emilia Romagna 44.85 11.28 30.9
07/05/2021 23:10:45 ML 2.0 Costa Calabra sud-occidentale (Catanzaro, Vibo Valentia, Reggio di Calabria) Mare 38.92 16.03 42.0
07/05/2021 21:58:25 ML 2.6 Adriatico Centrale (MARE) Mare 42.62 16.15 9.9
07/05/2021 21:00:55 ML 2.2 3 km a ovest di Correggio (RE) Emilia Romagna 44.77 10.74 7.0
07/05/2021 19:18:36 ML 2.0 6 km a sud-ovest di Radicondoli (SI) Toscana 43.21 11.01 7.9
07/05/2021 17:05:19 ML 2.5 2 km a sud di Cartignano (CN) Piemonte 44.46 7.29 10.0
07/05/2021 14:55:51 ML 2.6 8 km nord-est Stornara (FG) Puglia 41.34 15.84 9.5
07/05/2021 12:05:15 ML 2.8 Adriatico Centrale (MARE) Mare 42.73 16.12 9.9
07/05/2021 11:20:31 ML 3.4 Adriatico Centrale (MARE) Mare 42.67 16.21 8.8
07/05/2021 05:49:58 ML 3.5 Adriatico Centrale (MARE) Mare 42.61 16.24 10.0
07/05/2021 05:29:51 ML 2.6 Slovenia (SLOVENIA) Mondo 45.99 14.48 7.9
06/05/2021 16:55:23 ML 2.4 1 km a nord-ovest di Milo (CT) Sicilia 37.73 15.11 16.2
06/05/2021 16:32:04 ML 2.3 6 km a ovest di Monte Cavallo (MC) Marche 42.99 12.93 8.5
06/05/2021 14:18:29 ML 2.0 Sant`Alfio (CT) Sicilia 37.75 15.15 22.6
05/05/2021 16:05:01 ML 3.2 Adriatico Centrale (MARE) Mare 42.62 16.24 31.8
05/05/2021 14:11:54 ML 2.9 4 km a sud di PaternÚ (CT) Sicilia 37.54 14.90 2.8
05/05/2021 12:56:54 ML 2.0 4 km a est di Morcone (BN) Campania 41.34 14.71 10.6
05/05/2021 12:29:07 ML 2.6 Adriatico Centrale (MARE) Mare 42.60 16.16 10.0
05/05/2021 12:26:39 ML 3.6 Adriatico Centrale (MARE) Mare 42.57 16.21 6.3
05/05/2021 09:08:06 Md 2.0 Campi Flegrei Mondo 40.82 14.15 2.3
05/05/2021 07:07:50 ML 3.3 Tirreno Meridionale (MARE) Mare 38.98 15.53 209.2
05/05/2021 03:24:36 Mwp 6.0 Southern Sumatera, Indonesia (Sea: Indonesia) Mondo -1.95 99.79 19.5
04/05/2021 15:11:01 ML 2.1 4 km nord-est Borgone Susa (TO) Piemonte 45.15 7.27 12.6
04/05/2021 10:39:14 ML 2.1 4 km a sud di Vinchiaturo (CB) Molise 41.46 14.58 9.5
04/05/2021 08:15:56 ML 3.2 Adriatico Centrale (MARE) Mare 42.71 16.15 37.9
04/05/2021 06:13:07 ML 3.4 Adriatico Centrale (MARE) Mare 42.61 16.35 9.3
04/05/2021 00:57:03 ML 2.2 V3 Tarvisio (ITALIA, AUSTRIA, SLOVENIA) Mondo 46.58 13.86 6.8
03/05/2021 22:16:12 ML 2.4 Costa Garganica (Foggia) Mare 41.98 15.41 9.8
03/05/2021 20:36:47 ML 2.0 8 km nord-est Lauria (PZ) Basilicata 40.11 15.88 14.6
03/05/2021 15:53:51 ML 3.2 Isole Eolie (Messina) Mare 38.76 15.37 200.0
03/05/2021 12:12:14 ML 2.0 4 km a nord di Montieri (GR) Toscana 43.17 11.02 10.9
03/05/2021 09:23:36 ML 2.5 1 km a sud-est di Bertinoro (FC) Emilia Romagna 44.14 12.14 30.4
03/05/2021 04:07:07 ML 3.5 Tirreno Meridionale (MARE) Mare 38.87 14.14 419.5
03/05/2021 00:56:03 ML 2.6 Costa Calabra nord-occidentale (Cosenza) Mare 39.24 15.71 244.8
02/05/2021 21:26:23 ML 2.1 Slovenia (SLOVENIA) Mondo 45.92 14.40 9.8
02/05/2021 17:08:49 ML 2.1 1 km a nord-ovest di Monte Vidon Combatte (FM) Marche 43.06 13.63 25.1
02/05/2021 14:24:28 ML 2.1 5 km a sud-est di Oyace (AO) Valle d'Aosta 45.81 7.41 7.7
02/05/2021 14:07:29 ML 2.0 3 km a sud-ovest di Zafferana Etnea (CT) Sicilia 37.67 15.09 0.6
02/05/2021 10:18:37 ML 2.1 Costa Veneta meridionale (Rovigo) Mare 45.12 12.75 4.4
02/05/2021 06:45:06 ML 2.3 Costa Ionica Cosentina (Cosenza) Mare 39.56 16.92 21.6
02/05/2021 04:05:04 ML 2.0 6 km a est di Campello sul Clitunno (PG) Umbria 42.84 12.85 12.1
Locations of visitors to this page (counting)
- subnet mask - partners - ipcheck - favicon - speedtest - canale youtube - programmone